Terminal Aerodrome Forecast
Issued by NWS Des Moines, IA

Home | Current Version | Previous Version | Text Only | Print | Product List | Glossary On
Versions: 1 2 3 4 5 6 7 8 9 10 11 12 13 14 15
000
FTUS43 KDMX 201732
TAFDSM
TAF
KDSM 201732Z 2018/2118 22019G27KT P6SM BKN300
     FM202200 21016KT P6SM BKN200
     FM210200 24010KT P6SM BKN150
     FM210900 30010KT P6SM SCT250
     FM211500 34020G30KT P6SM BKN120=

USA.gov is the U.S. government's official web portal to all federal, state and local government web resources and services.